Date,TemperatureHighF,TemperatureAvgF,TemperatureLowF,DewpointHighF,DewpointAvgF,DewpointLowF,HumidityHigh,HumidityAvg,HumidityLow,PressureMaxIn,PressureMinIn,WindSpeedMaxMPH,WindSpeedAvgMPH,GustSpeedMaxMPH,PrecipitationSumIn
2013-3-1,35.0,31.1,27.0,28.0,25.5,20.0,87,80,69,30.17,30.01,6,2,14,0.01
2013-3-2,32.0,28.3,24.0,24.0,21.6,19.0,84,76,69,30.17,30.12,8,4,17,0.00
2013-3-3,32.0,26.7,19.0,23.0,19.6,15.0,88,75,64,30.15,30.09,6,2,13,0.00
2013-3-4,37.0,27.3,18.0,26.0,20.3,16.0,92,76,53,30.19,30.07,4,1,10,0.00
2013-3-5,33.0,30.6,28.0,28.0,26.5,24.0,95,85,72,30.09,29.80,5,3,16,0.01
2013-3-6,36.0,31.4,27.0,31.0,28.2,25.0,94,88,77,30.29,29.91,7,4,15,0.26
2013-3-7,38.0,32.7,22.0,31.0,27.9,19.0,94,83,64,30.45,30.28,4,1,9,0.08
2013-3-8,41.0,27.6,14.0,28.0,21.2,12.0,92,78,58,30.54,30.42,4,0,8,0.01
2013-3-9,42.0,36.0,29.0,35.0,29.4,23.0,82,77,68,30.42,29.96,9,4,18,0.00
2013-3-10,58.0,48.5,40.0,49.0,41.0,34.0,90,76,65,29.96,29.70,9,3,14,0.09
2013-3-11,53.0,44.2,35.0,47.0,41.6,32.0,96,90,73,29.76,29.54,4,2,13,0.12
2013-3-12,38.0,33.4,30.0,32.0,29.4,27.0,93,85,69,29.98,29.76,4,1,9,0.01
2013-3-13,30.0,27.1,22.0,27.0,21.3,16.0,92,79,61,30.34,29.98,7,3,16,0.06
2013-3-14,43.0,30.8,20.0,30.0,22.9,16.0,88,74,49,30.35,30.16,3,1,8,0.01
2013-3-15,48.0,36.6,29.0,39.0,33.2,27.0,94,88,68,30.16,29.81,3,0,9,0.11
2013-3-16,38.0,34.5,30.0,37.0,31.7,24.0,95,90,78,30.12,29.68,9,3,17,0.10
2013-3-17,37.0,32.0,29.0,26.0,23.4,20.0,82,71,58,30.24,30.09,7,3,16,0.00
2013-3-18,35.0,31.2,28.0,34.0,27.7,21.0,95,87,74,30.09,29.62,7,2,17,0.04
2013-3-19,36.0,27.6,21.0,23.0,19.0,16.0,83,71,48,30.07,29.78,5,2,16,0.02
2013-3-20,28.0,23.2,19.0,19.0,15.0,11.0,89,71,59,30.08,30.03,6,2,16,0.01
2013-3-21,30.0,23.6,18.0,21.0,18.0,13.0,92,79,65,30.07,29.99,6,2,13,0.09
2013-3-22,38.0,27.4,17.0,24.0,19.3,15.0,92,73,46,30.11,30.04,5,1,11,0.02
2013-3-23,39.0,29.6,21.0,28.0,23.5,19.0,94,78,58,30.17,30.05,5,1,11,0.01
2013-3-24,37.0,32.4,28.0,28.0,25.5,23.0,84,75,63,30.06,29.63,9,3,21,0.01
2013-3-25,37.0,33.2,30.0,30.0,27.1,24.0,84,78,73,30.03,29.64,10,5,18,0.00
2013-3-26,39.0,34.3,31.0,33.0,30.1,27.0,93,84,72,30.25,30.03,7,3,17,0.02
2013-3-27,43.0,34.9,26.0,33.0,27.1,21.0,94,75,47,30.33,30.24,8,2,18,0.01
2013-3-28,48.0,34.8,23.0,31.0,23.8,20.0,91,67,37,30.36,30.31,6,1,13,0.00
2013-3-29,51.0,37.0,24.0,31.0,23.8,21.0,92,63,33,30.35,30.26,6,1,12,0.00
2013-3-30,57.0,41.1,24.0,36.0,28.7,21.0,90,64,41,30.28,29.93,4,1,14,0.00
2013-3-31,59.0,48.5,39.0,43.0,36.9,-99.9,94,68,43,29.93,29.68,9,2,20,0.01